Ferry Tsurugi — JI3553 — position and weather

sailwx.info

Track history (hours):
 
Tides and Currents Weather Stations Pressure Air Temp Water Temp Dewpoint Dewpoint Depression Visibility Wind Speed Wind Dir Waves Ship Positions

Ferry Tsurugi

Last reported at 2018-Feb-23 00:31 UTC. Time now 2018-Feb-23 00:56 UTC.
Position N 34°10' E 134°60'.

Length 108 m; draft 4 m.

Type: Passenger vessel. MMSI: 431500658.

Date/timePositionNaut miles runAvg speedWind from/ knotsBaromVisibWave heightAir tempDewpointWater temp
2018-Feb-23 00:31N 34°10' E 134°60'815.7
2018-Feb-23 00:00N 34°07' E 134°51'815.6
2018-Feb-22 23:29N 34°04' E 134°42'6 7.8
2018-Feb-22 22:45N 34°03' E 134°35'1 2.4
2018-Feb-22 22:27N 34°03' E 134°36'715.1
2018-Feb-22 22:00N 34°05' E 134°43'816.2
2018-Feb-22 21:30N 34°08' E 134°53'816.1
2018-Feb-22 21:00N 34°11' E 135°02'612.2
2018-Feb-22 20:30N 34°13' E 135°09'1 2.3
2018-Feb-22 20:01N 34°13' E 135°07'715.0
2018-Feb-22 19:31N 34°09' E 134°60'714.3
2018-Feb-22 19:00N 34°08' E 134°51'815.1
2018-Feb-22 18:30N 34°05' E 134°43'612.9
2018-Feb-22 18:01N 34°03' E 134°35'0 0.1
2018-Feb-22 14:52N 34°03' E 134°35'410.9
2018-Feb-22 14:30N 34°04' E 134°40'714.0
2018-Feb-22 14:00N 34°07' E 134°47'714.4
2018-Feb-22 13:30N 34°09' E 134°56'714.2
2018-Feb-22 13:00N 34°12' E 135°04'4 8.6
2018-Feb-22 12:30N 34°13' E 135°09'0 0.0
2018-Feb-22 12:00N 34°13' E 135°09'713.8
2018-Feb-22 11:31N 34°11' E 135°01'815.3
2018-Feb-22 11:00N 34°08' E 134°52'815.5
2018-Feb-22 10:30N 34°05' E 134°43'713.8
2018-Feb-22 10:00N 34°03' E 134°35'0 0.7
2018-Feb-22 09:21N 34°03' E 134°36'514.5
2018-Feb-22 09:00N 34°04' E 134°42'816.0
2018-Feb-22 08:30N 34°08' E 134°50'816.1
2018-Feb-22 08:00N 34°11' E 134°59'714.8
2018-Feb-22 07:30N 34°13' E 135°08'1 1.6
2018-Feb-22 07:01N 34°13' E 135°09'1 1.0
2018-Feb-22 06:30N 34°13' E 135°08'714.5
2018-Feb-22 06:00N 34°10' E 134°60'714.6
2018-Feb-22 05:30N 34°07' E 134°52'815.1
2018-Feb-22 05:00N 34°05' E 134°43'7 5.5
2018-Feb-22 03:47N 34°03' E 134°35'310.2
2018-Feb-22 03:29N 34°04' E 134°39'714.2
2018-Feb-22 03:00N 34°07' E 134°46'714.4
2018-Feb-22 02:31N 34°09' E 134°54'714.1
2018-Feb-22 02:01N 34°12' E 135°02'510.6
2018-Feb-22 01:30N 34°13' E 135°09'1 1.7
2018-Feb-22 01:00N 34°13' E 135°08'715.0
2018-Feb-22 00:31N 34°11' E 134°59'815.6
2018-Feb-22 00:00N 34°08' E 134°50'815.4
2018-Feb-21 23:30N 34°05' E 134°42'6 5.6
2018-Feb-21 22:31N 34°03' E 134°35'0 4.3
2018-Feb-21 22:30N 34°03' E 134°35'714.4
2018-Feb-21 22:00N 34°05' E 134°44'816.2
2018-Feb-21 21:30N 34°08' E 134°53'816.3
2018-Feb-21 21:00N 34°11' E 135°02'611.7
2018-Feb-21 20:30N 34°13' E 135°09'1 1.4
2018-Feb-21 20:01N 34°13' E 135°08'714.7
2018-Feb-21 19:31N 34°11' E 134°59'714.7
2018-Feb-21 19:00N 34°07' E 134°51'714.6
2018-Feb-21 18:30N 34°05' E 134°43'7 1.8
2018-Feb-21 14:52N 34°03' E 134°35'412.0
2018-Feb-21 14:30N 34°04' E 134°40'714.0
2018-Feb-21 14:00N 34°08' E 134°48'714.2
2018-Feb-21 13:31N 34°10' E 134°55'713.7
2018-Feb-21 13:00N 34°12' E 135°03'4 8.7
2018-Feb-21 12:30N 34°13' E 135°09'0 0.1
2018-Feb-21 12:00N 34°13' E 135°09'714.3
2018-Feb-21 11:31N 34°11' E 135°00'815.9
2018-Feb-21 11:01N 34°07' E 134°52'815.1
2018-Feb-21 10:30N 34°05' E 134°43'7 6.1
2018-Feb-21 09:24N 34°03' E 134°35'513.8
2018-Feb-21 09:00N 34°05' E 134°41'815.8
2018-Feb-21 08:31N 34°08' E 134°50'816.0
2018-Feb-21 08:01N 34°10' E 134°59'815.4
2018-Feb-21 07:30N 34°13' E 135°08'0 0.9
2018-Feb-21 07:00N 34°13' E 135°09'1 1.1
2018-Feb-21 06:31N 34°13' E 135°08'714.6
2018-Feb-21 06:01N 34°11' E 134°60'714.8
2018-Feb-21 05:31N 34°07' E 134°52'814.7
2018-Feb-21 04:59N 34°05' E 134°43'6 4.3
2018-Feb-21 03:39N 34°03' E 134°36'213.0
2018-Feb-21 03:29N 34°04' E 134°39'714.2
2018-Feb-21 03:00N 34°07' E 134°46'815.1
2018-Feb-21 02:30N 34°09' E 134°55'714.8
2018-Feb-21 02:01N 34°13' E 135°02'510.6
2018-Feb-21 01:30N 34°13' E 135°09'1 1.0
2018-Feb-21 01:00N 34°13' E 135°08'714.4
2018-Feb-21 00:30N 34°11' E 134°60'815.7
2018-Feb-21 00:00N 34°08' E 134°51'815.7
2018-Feb-20 23:30N 34°05' E 134°42'5 5.0
2018-Feb-20 22:26N 34°03' E 134°36'715.5
2018-Feb-20 22:00N 34°06' E 134°43'816.8
2018-Feb-20 21:30N 34°09' E 134°53'816.7
2018-Feb-20 21:00N 34°12' E 135°02'510.9
2018-Feb-20 20:30N 34°13' E 135°09'1 1.1
2018-Feb-20 20:01N 34°13' E 135°08'714.9
2018-Feb-20 19:30N 34°10' E 134°59'815.3
2018-Feb-20 19:00N 34°07' E 134°51'714.9
2018-Feb-20 18:30N 34°05' E 134°42'6 1.9
2018-Feb-20 15:08N 34°03' E 134°35'0 0.0
2018-Feb-20 14:58N 34°03' E 134°35'4 8.3
2018-Feb-20 14:30N 34°04' E 134°40'714.4
2018-Feb-20 14:00N 34°07' E 134°47'714.2
2018-Feb-20 13:30N 34°10' E 134°55'714.1
2018-Feb-20 13:00N 34°12' E 135°03'4 9.0
2018-Feb-20 12:31N 34°13' E 135°09'0 0.1
2018-Feb-20 12:01N 34°13' E 135°09'714.2
2018-Feb-20 11:30N 34°11' E 135°00'815.6
2018-Feb-20 11:00N 34°08' E 134°52'815.1
2018-Feb-20 10:30N 34°05' E 134°43'713.5
2018-Feb-20 10:00N 34°03' E 134°35'0 0.5
2018-Feb-20 09:26N 34°03' E 134°35'512.7
2018-Feb-20 09:01N 34°04' E 134°42'815.8
2018-Feb-20 08:31N 34°07' E 134°51'816.1
2018-Feb-20 08:00N 34°10' E 134°60'815.0
2018-Feb-20 07:30N 34°13' E 135°08'1 1.0
2018-Feb-20 07:00N 34°13' E 135°09'1 1.5
2018-Feb-20 06:31N 34°13' E 135°08'714.9
2018-Feb-20 06:00N 34°09' E 135°00'814.8
2018-Feb-20 05:30N 34°07' E 134°51'814.7
2018-Feb-20 04:58N 34°05' E 134°42'612.9
2018-Feb-20 04:30N 34°03' E 134°35'0 0.1
2018-Feb-20 03:45N 34°03' E 134°35'310.5
2018-Feb-20 03:29N 34°04' E 134°39'714.1
2018-Feb-20 03:00N 34°06' E 134°46'714.1
2018-Feb-20 02:30N 34°09' E 134°54'714.3
2018-Feb-20 02:00N 34°11' E 135°02'611.2
2018-Feb-20 01:31N 34°13' E 135°09'1 1.2
2018-Feb-20 01:01N 34°13' E 135°08'815.3
2018-Feb-20 00:31N 34°10' E 134°59'816.3
2018-Feb-20 00:01N 34°06' E 134°51'815.9
2018-Feb-19 23:30N 34°03' E 134°42'6 7.4
2018-Feb-19 22:42N 34°03' E 134°35'1 2.6
2018-Feb-19 22:27N 34°03' E 134°36'715.4
2018-Feb-19 22:00N 34°05' E 134°44'816.1
2018-Feb-19 21:30N 34°08' E 134°53'816.1
2018-Feb-19 21:01N 34°11' E 135°02'612.1
2018-Feb-19 20:31N 34°13' E 135°09'1 1.9
2018-Feb-19 20:00N 34°13' E 135°07'714.8
2018-Feb-19 19:30N 34°10' E 134°59'714.6
2018-Feb-19 19:00N 34°07' E 134°51'714.3
2018-Feb-19 18:29N 34°05' E 134°43'612.2
2018-Feb-19 17:58N 34°03' E 134°35'0 0.0
2018-Feb-19 15:01N 34°03' E 134°35'0 0.0
2018-Feb-19 14:55N 34°03' E 134°35'510.8
2018-Feb-19 14:27N 34°05' E 134°41'614.3
2018-Feb-19 14:00N 34°07' E 134°48'713.9
2018-Feb-19 13:30N 34°10' E 134°56'713.7
2018-Feb-19 13:00N 34°12' E 135°04'4 8.5
2018-Feb-19 12:30N 34°13' E 135°09'0 0.0
2018-Feb-19 12:00N 34°13' E 135°09'713.9
2018-Feb-19 11:30N 34°11' E 135°01'815.4
2018-Feb-19 11:01N 34°08' E 134°52'815.4
2018-Feb-19 10:31N 34°05' E 134°43'7 6.7
2018-Feb-19 09:26N 34°03' E 134°35'613.8
2018-Feb-19 09:01N 34°04' E 134°42'815.7
2018-Feb-19 08:30N 34°08' E 134°51'815.5
2018-Feb-19 08:00N 34°10' E 134°60'815.1
2018-Feb-19 07:30N 34°13' E 135°08'0 0.7
2018-Feb-19 06:59N 34°13' E 135°09'1 1.5
2018-Feb-19 06:31N 34°13' E 135°08'714.3
2018-Feb-19 06:01N 34°10' E 135°00'714.8
2018-Feb-19 05:30N 34°07' E 134°52'814.8
2018-Feb-19 05:00N 34°05' E 134°43'7 5.4
2018-Feb-19 03:46N 34°03' E 134°35'311.1
2018-Feb-19 03:29N 34°04' E 134°39'714.4
2018-Feb-19 03:00N 34°06' E 134°47'714.1
2018-Feb-19 02:30N 34°09' E 134°55'714.0
2018-Feb-19 02:00N 34°11' E 135°03'510.5
2018-Feb-19 01:30N 34°13' E 135°09'1 1.0
2018-Feb-19 01:00N 34°13' E 135°08'714.7
2018-Feb-19 00:30N 34°11' E 134°59'815.7
2018-Feb-19 00:00N 34°08' E 134°51'815.6
2018-Feb-18 23:30N 34°05' E 134°42'6 7.1
2018-Feb-18 22:41N 34°03' E 134°35'1 4.7
2018-Feb-18 22:31N 34°03' E 134°36'714.7
2018-Feb-18 22:00N 34°06' E 134°44'815.6
2018-Feb-18 21:31N 34°08' E 134°53'815.7
2018-Feb-18 21:01N 34°12' E 135°02'611.8
2018-Feb-18 20:30N 34°13' E 135°09'1 1.1
2018-Feb-18 20:01N 34°13' E 135°08'714.8
2018-Feb-18 19:31N 34°10' E 134°60'714.6
2018-Feb-18 19:00N 34°08' E 134°51'814.8
2018-Feb-18 18:28N 34°05' E 134°42'612.3
2018-Feb-18 17:58N 34°03' E 134°35'0 0.3
2018-Feb-18 17:23N 34°03' E 134°35'0 0.0
2018-Feb-18 15:13N 34°03' E 134°35'0 0.0
2018-Feb-18 14:58N 34°03' E 134°35'5 9.2
2018-Feb-18 14:28N 34°04' E 134°41'714.0
2018-Feb-18 14:01N 34°07' E 134°48'714.0
2018-Feb-18 13:31N 34°09' E 134°56'714.0
2018-Feb-18 13:00N 34°12' E 135°04'4 8.7
2018-Feb-18 12:30N 34°13' E 135°09'0 0.1
2018-Feb-18 12:00N 34°13' E 135°09'714.0
2018-Feb-18 11:31N 34°11' E 135°00'815.5
2018-Feb-18 11:00N 34°08' E 134°51'815.2
2018-Feb-18 10:30N 34°05' E 134°43'713.8
2018-Feb-18 10:00N 34°03' E 134°35'0 0.2
2018-Feb-18 09:26N 34°03' E 134°35'613.2
2018-Feb-18 09:00N 34°04' E 134°42'815.4
2018-Feb-18 08:30N 34°07' E 134°50'815.8
2018-Feb-18 08:00N 34°10' E 134°59'815.1
2018-Feb-18 07:30N 34°13' E 135°08'1 1.8
2018-Feb-18 07:00N 34°13' E 135°09'0 0.7
2018-Feb-18 06:31N 34°13' E 135°08'714.3
2018-Feb-18 06:00N 34°10' E 135°00'714.7
2018-Feb-18 05:30N 34°07' E 134°52'815.0
2018-Feb-18 05:00N 34°05' E 134°43'713.1
2018-Feb-18 04:28N 34°03' E 134°35'0 0.3
2018-Feb-18 03:56N 34°03' E 134°35'3 7.1
2018-Feb-18 03:30N 34°03' E 134°39'714.1
2018-Feb-18 03:00N 34°06' E 134°47'714.0
2018-Feb-18 02:30N 34°08' E 134°54'714.1
2018-Feb-18 02:01N 34°11' E 135°02'610.9
2018-Feb-18 01:30N 34°13' E 135°09'1 1.3
2018-Feb-18 01:00N 34°13' E 135°08'714.6
2018-Feb-18 00:30N 34°11' E 134°59'815.6
2018-Feb-18 00:00N 34°07' E 134°51'815.5
2018-Feb-17 23:30N 34°05' E 134°42'6 8.7
2018-Feb-17 22:50N 34°03' E 134°35'0 1.3
2018-Feb-17 22:30N 34°03' E 134°35'714.6
2018-Feb-17 22:00N 34°05' E 134°44'816.1
2018-Feb-17 21:31N 34°08' E 134°53'815.8
2018-Feb-17 21:01N 34°11' E 135°02'612.0
2018-Feb-17 20:30N 34°13' E 135°09'1 1.5
2018-Feb-17 20:01N 34°13' E 135°08'714.3
2018-Feb-17 19:31N 34°10' E 134°60'814.8
2018-Feb-17 19:00N 34°07' E 134°51'814.9
2018-Feb-17 18:29N 34°05' E 134°43'6 1.7
2018-Feb-17 14:51N 34°03' E 134°35'410.7
2018-Feb-17 14:30N 34°04' E 134°40'713.9
2018-Feb-17 14:00N 34°06' E 134°47'714.5
2018-Feb-17 13:30N 34°09' E 134°56'714.5
2018-Feb-17 13:01N 34°12' E 135°03'4 8.9
2018-Feb-17 12:30N 34°13' E 135°09'0 0.1
2018-Feb-17 12:01N 34°13' E 135°09'714.2
2018-Feb-17 11:30N 34°10' E 135°00'815.6
2018-Feb-17 11:00N 34°08' E 134°52'815.4
2018-Feb-17 10:30N 34°05' E 134°43'713.1
2018-Feb-17 10:00N 34°03' E 134°35'0 0.5
2018-Feb-17 09:22N 34°03' E 134°36'513.2
2018-Feb-17 09:00N 34°04' E 134°41'714.8
2018-Feb-17 08:30N 34°07' E 134°50'816.3
2018-Feb-17 08:00N 34°10' E 134°59'815.8
2018-Feb-17 07:30N 34°13' E 135°08'1 1.7
2018-Feb-17 07:00N 34°13' E 135°09'0 0.8
2018-Feb-17 06:30N 34°13' E 135°08'714.5
2018-Feb-17 06:00N 34°11' E 134°60'714.9
2018-Feb-17 05:31N 34°08' E 134°52'815.1
2018-Feb-17 05:00N 34°05' E 134°43'712.5
2018-Feb-17 04:28N 34°03' E 134°35'0 0.2
2018-Feb-17 03:54N 34°03' E 134°35'4 8.4
2018-Feb-17 03:27N 34°04' E 134°39'614.2
2018-Feb-17 03:00N 34°06' E 134°47'714.2
2018-Feb-17 02:30N 34°09' E 134°55'714.4
2018-Feb-17 02:00N 34°11' E 135°03'510.5
2018-Feb-17 01:30N 34°13' E 135°09'0 0.7
2018-Feb-17 01:00N 34°13' E 135°08'714.3
2018-Feb-17 00:30N 34°10' E 135°00'815.2
2018-Feb-17 00:00N 34°07' E 134°52'916.1
2018-Feb-16 23:29N 34°04' E 134°42'611.6
2018-Feb-16 22:59N 34°03' E 134°35'0 0.4
2018-Feb-16 22:30N 34°03' E 134°35'815.0
2018-Feb-16 21:59N 34°06' E 134°44'816.0
2018-Feb-16 21:30N 34°08' E 134°53'816.0
2018-Feb-16 21:01N 34°11' E 135°02'611.9
2018-Feb-16 20:30N 34°13' E 135°09'1 1.2
2018-Feb-16 20:01N 34°13' E 135°08'714.5
2018-Feb-16 19:30N 34°11' E 134°59'714.7
2018-Feb-16 19:01N 34°08' E 134°51'714.6
2018-Feb-16 18:30N 34°05' E 134°43'7 6.5
2018-Feb-16 17:27N 34°03' E 134°35'0 0.0
2018-Feb-16 16:53N 34°03' E 134°35'0 0.0
2018-Feb-16 16:25N 34°03' E 134°35'0 0.0
2018-Feb-16 14:58N 34°03' E 134°35'4 9.6
2018-Feb-16 14:30N 34°04' E 134°40'714.0
2018-Feb-16 14:00N 34°07' E 134°48'713.8
2018-Feb-16 13:31N 34°09' E 134°56'714.0
2018-Feb-16 13:00N 34°12' E 135°04'4 8.4
2018-Feb-16 12:30N 34°13' E 135°09'0 0.1
2018-Feb-16 12:00N 34°13' E 135°09'613.0
2018-Feb-16 11:30N 34°11' E 135°01'815.7
2018-Feb-16 11:01N 34°08' E 134°52'915.5
2018-Feb-16 10:26N 34°05' E 134°42'6 6.0
2018-Feb-16 09:25N 34°03' E 134°35'613.8
2018-Feb-16 09:00N 34°04' E 134°42'815.5
2018-Feb-16 08:31N 34°07' E 134°51'815.7
2018-Feb-16 08:00N 34°10' E 134°59'815.1
2018-Feb-16 07:31N 34°13' E 135°08'1 1.6
2018-Feb-16 07:01N 34°13' E 135°09'1 1.3
2018-Feb-16 06:31N 34°13' E 135°08'714.6
2018-Feb-16 06:01N 34°10' E 134°60'714.7
2018-Feb-16 05:30N 34°07' E 134°52'814.6
2018-Feb-16 04:59N 34°05' E 134°43'7 5.4
2018-Feb-16 03:46N 34°03' E 134°35'311.8
2018-Feb-16 03:29N 34°04' E 134°39'714.2
2018-Feb-16 03:00N 34°06' E 134°47'714.1
2018-Feb-16 02:30N 34°09' E 134°55'713.7
2018-Feb-16 02:00N 34°12' E 135°02'510.9
2018-Feb-16 01:30N 34°13' E 135°09'1 1.2
2018-Feb-16 01:01N 34°13' E 135°08'815.1
2018-Feb-16 00:30N 34°09' E 134°60'815.2
2018-Feb-16 00:00N 34°07' E 134°51'815.5
2018-Feb-15 23:29N 34°05' E 134°42'6 5.8
2018-Feb-15 22:31N 34°03' E 134°35'0 9.6
2018-Feb-15 22:29N 34°03' E 134°35'814.8
2018-Feb-15 21:59N 34°06' E 134°44'816.0
2018-Feb-15 21:30N 34°09' E 134°52'816.0
2018-Feb-15 21:00N 34°12' E 135°02'612.1
2018-Feb-15 20:30N 34°13' E 135°09'1 1.1
2018-Feb-15 20:01N 34°13' E 135°08'714.8
2018-Feb-15 19:31N 34°10' E 134°60'815.3
2018-Feb-15 19:01N 34°07' E 134°51'814.4
2018-Feb-15 18:28N 34°04' E 134°42'6 1.6
2018-Feb-15 14:51N 34°03' E 134°35'412.0
2018-Feb-15 14:30N 34°04' E 134°40'713.8
2018-Feb-15 14:00N 34°07' E 134°48'714.0
2018-Feb-15 13:30N 34°09' E 134°56'714.4
2018-Feb-15 13:01N 34°12' E 135°04'4 8.5
2018-Feb-15 12:30N 34°13' E 135°09'0 0.0
2018-Feb-15 12:00N 34°13' E 135°09'714.0
2018-Feb-15 11:31N 34°11' E 135°01'815.6
2018-Feb-15 11:00N 34°08' E 134°52'815.7
2018-Feb-15 10:29N 34°05' E 134°43'6 5.3
2018-Feb-15 09:22N 34°03' E 134°36'514.8
2018-Feb-15 09:01N 34°05' E 134°42'815.8
2018-Feb-15 08:30N 34°08' E 134°51'815.6
2018-Feb-15 08:01N 34°11' E 134°59'815.1
2018-Feb-15 07:31N 34°13' E 135°08'1 1.1
2018-Feb-15 07:00N 34°13' E 135°09'0 0.9
2018-Feb-15 06:31N 34°13' E 135°08'714.9
2018-Feb-15 06:00N 34°10' E 134°60'815.2
2018-Feb-15 05:30N 34°07' E 134°51'814.3
2018-Feb-15 04:58N 34°05' E 134°42'6 5.2
2018-Feb-15 03:47N 34°03' E 134°35'412.4
2018-Feb-15 03:26N 34°05' E 134°40'613.9
2018-Feb-15 03:00N 34°08' E 134°46'713.8
2018-Feb-15 02:30N 34°10' E 134°54'714.1
2018-Feb-15 02:00N 34°12' E 135°02'510.6
2018-Feb-15 01:30N 34°13' E 135°09'0 0.8
2018-Feb-15 01:00N 34°13' E 135°08'714.8
2018-Feb-15 00:31N 34°11' E 134°59'815.8
2018-Feb-15 00:01N 34°08' E 134°51'815.7
2018-Feb-14 23:30N 34°05' E 134°42'6 6.3
2018-Feb-14 22:35N 34°03' E 134°35'111.0
2018-Feb-14 22:30N 34°03' E 134°36'815.1
2018-Feb-14 22:00N 34°06' E 134°44'815.3
2018-Feb-14 21:30N 34°09' E 134°53'815.3
2018-Feb-14 21:00N 34°11' E 135°02'612.1
2018-Feb-14 20:30N 34°13' E 135°09'1 1.5
2018-Feb-14 20:00N 34°13' E 135°08'714.6
2018-Feb-14 19:30N 34°10' E 134°60'714.8
2018-Feb-14 19:00N 34°08' E 134°51'814.9
2018-Feb-14 18:30N 34°05' E 134°43'6 1.8
2018-Feb-14 14:53N 34°03' E 134°35'512.5
2018-Feb-14 14:31N 34°04' E 134°41'713.7
2018-Feb-14 14:00N 34°07' E 134°49'713.8
2018-Feb-14 13:30N 34°10' E 134°56'713.4
2018-Feb-14 13:00N 34°12' E 135°04'4 8.4
2018-Feb-14 12:30N 34°13' E 135°09'0 0.0
2018-Feb-14 12:00N 34°13' E 135°09'713.7
2018-Feb-14 11:31N 34°11' E 135°01'815.3
2018-Feb-14 11:01N 34°08' E 134°52'815.2
2018-Feb-14 10:31N 34°05' E 134°44'714.3
2018-Feb-14 10:00N 34°03' E 134°35'0 0.4
2018-Feb-14 09:28N 34°03' E 134°35'613.3
2018-Feb-14 09:00N 34°05' E 134°42'815.2
2018-Feb-14 08:31N 34°08' E 134°50'815.3
2018-Feb-14 08:00N 34°10' E 134°59'714.7
2018-Feb-14 07:31N 34°13' E 135°08'1 1.6
2018-Feb-14 07:00N 34°13' E 135°09'1 1.8
2018-Feb-14 06:31N 34°13' E 135°08'714.7
2018-Feb-14 06:00N 34°09' E 134°60'714.4
2018-Feb-14 05:30N 34°08' E 134°51'814.8
2018-Feb-14 04:59N 34°05' E 134°42'6 5.2
2018-Feb-14 03:45N 34°03' E 134°35'312.5
2018-Feb-14 03:30N 34°03' E 134°39'714.0
2018-Feb-14 03:00N 34°06' E 134°47'714.0
2018-Feb-14 02:31N 34°09' E 134°54'714.0
2018-Feb-14 02:00N 34°12' E 135°02'511.0
2018-Feb-14 01:30N 34°13' E 135°09'1 1.8
2018-Feb-14 01:00N 34°13' E 135°08'815.1
2018-Feb-14 00:30N 34°11' E 134°59'815.4
2018-Feb-14 00:00N 34°07' E 134°51'815.7
2018-Feb-13 23:29N 34°05' E 134°42'610.8
2018-Feb-13 22:58N 34°03' E 134°35'1 1.7
2018-Feb-13 22:29N 34°03' E 134°36'715.0
2018-Feb-13 22:00N 34°06' E 134°44'815.7
2018-Feb-13 21:31N 34°09' E 134°53'815.6
2018-Feb-13 21:01N 34°11' E 135°02'612.2
2018-Feb-13 20:31N 34°13' E 135°09'1 1.6
2018-Feb-13 20:00N 34°13' E 135°08'815.1
2018-Feb-13 19:30N 34°10' E 134°59'714.9
2018-Feb-13 19:01N 34°07' E 134°51'714.7
2018-Feb-13 18:30N 34°05' E 134°42'611.5
2018-Feb-13 17:58N 34°03' E 134°35'0 0.3
2018-Feb-13 17:12N 34°03' E 134°35'0 0.0
2018-Feb-13 15:09N 34°03' E 134°35'0 0.0
2018-Feb-13 14:56N 34°03' E 134°35'4 9.3
2018-Feb-13 14:30N 34°04' E 134°40'713.8
2018-Feb-13 14:00N 34°07' E 134°47'714.2
2018-Feb-13 13:30N 34°09' E 134°55'714.7
2018-Feb-13 13:00N 34°12' E 135°04'4 8.6
2018-Feb-13 12:30N 34°13' E 135°09'0 0.0
2018-Feb-13 12:00N 34°13' E 135°09'713.3
2018-Feb-13 11:30N 34°11' E 135°01'815.4
2018-Feb-13 11:01N 34°08' E 134°53'815.5
2018-Feb-13 10:30N 34°05' E 134°44'713.4
2018-Feb-13 09:58N 34°03' E 134°35'0 0.2
2018-Feb-13 09:25N 34°03' E 134°35'613.5
2018-Feb-13 08:59N 34°04' E 134°42'815.9
2018-Feb-13 08:31N 34°08' E 134°50'815.7
2018-Feb-13 08:01N 34°10' E 134°59'815.2
2018-Feb-13 07:31N 34°13' E 135°08'1 1.5
2018-Feb-13 07:01N 34°13' E 135°09'1 1.1
2018-Feb-13 06:31N 34°13' E 135°08'714.5
2018-Feb-13 06:01N 34°10' E 134°60'814.7
2018-Feb-13 05:30N 34°07' E 134°51'814.8
2018-Feb-13 04:59N 34°05' E 134°43'612.5
2018-Feb-13 04:28N 34°03' E 134°35'0 0.3
2018-Feb-13 03:59N 34°03' E 134°35'3 6.6
2018-Feb-13 03:30N 34°03' E 134°39'714.0
2018-Feb-13 03:00N 34°07' E 134°46'714.1
2018-Feb-13 02:30N 34°09' E 134°54'714.5
2018-Feb-13 02:00N 34°11' E 135°03'510.4
2018-Feb-13 01:30N 34°13' E 135°09'0 0.7
2018-Feb-13 01:01N 34°13' E 135°08'714.4
2018-Feb-13 00:31N 34°10' E 135°00'  
Track history (hours):
 
Tides and Currents Weather Stations Pressure Air Temp Water Temp Dewpoint Dewpoint Depression Visibility Wind Speed Wind Dir Waves Ship Positions

Ferry Tsurugi

Last reported at 2018-Feb-23 00:31 UTC. Time now 2018-Feb-23 00:56 UTC.
Position N 34°10' E 134°60'.

Length 108 m; draft 4 m.

Type: Passenger vessel. MMSI: 431500658.

Date/timePositionNaut miles runAvg speedWind from/ knotsBaromVisibWave heightAir tempDewpointWater temp
2018-Feb-23 00:31N 34°10' E 134°60'815.7
2018-Feb-23 00:00N 34°07' E 134°51'815.6
2018-Feb-22 23:29N 34°04' E 134°42'6 7.8
2018-Feb-22 22:45N 34°03' E 134°35'1 2.4
2018-Feb-22 22:27N 34°03' E 134°36'715.1
2018-Feb-22 22:00N 34°05' E 134°43'816.2
2018-Feb-22 21:30N 34°08' E 134°53'816.1
2018-Feb-22 21:00N 34°11' E 135°02'612.2
2018-Feb-22 20:30N 34°13' E 135°09'1 2.3
2018-Feb-22 20:01N 34°13' E 135°07'715.0
2018-Feb-22 19:31N 34°09' E 134°60'714.3
2018-Feb-22 19:00N 34°08' E 134°51'815.1
2018-Feb-22 18:30N 34°05' E 134°43'612.9
2018-Feb-22 18:01N 34°03' E 134°35'0 0.1
2018-Feb-22 14:52N 34°03' E 134°35'410.9
2018-Feb-22 14:30N 34°04' E 134°40'714.0
2018-Feb-22 14:00N 34°07' E 134°47'714.4
2018-Feb-22 13:30N 34°09' E 134°56'714.2
2018-Feb-22 13:00N 34°12' E 135°04'4 8.6
2018-Feb-22 12:30N 34°13' E 135°09'0 0.0
2018-Feb-22 12:00N 34°13' E 135°09'713.8
2018-Feb-22 11:31N 34°11' E 135°01'815.3
2018-Feb-22 11:00N 34°08' E 134°52'815.5
2018-Feb-22 10:30N 34°05' E 134°43'713.8
2018-Feb-22 10:00N 34°03' E 134°35'0 0.7
2018-Feb-22 09:21N 34°03' E 134°36'514.5
2018-Feb-22 09:00N 34°04' E 134°42'816.0
2018-Feb-22 08:30N 34°08' E 134°50'816.1
2018-Feb-22 08:00N 34°11' E 134°59'714.8
2018-Feb-22 07:30N 34°13' E 135°08'1 1.6
2018-Feb-22 07:01N 34°13' E 135°09'1 1.0
2018-Feb-22 06:30N 34°13' E 135°08'714.5
2018-Feb-22 06:00N 34°10' E 134°60'714.6
2018-Feb-22 05:30N 34°07' E 134°52'815.1
2018-Feb-22 05:00N 34°05' E 134°43'7 5.5
2018-Feb-22 03:47N 34°03' E 134°35'310.2
2018-Feb-22 03:29N 34°04' E 134°39'714.2
2018-Feb-22 03:00N 34°07' E 134°46'714.4
2018-Feb-22 02:31N 34°09' E 134°54'714.1
2018-Feb-22 02:01N 34°12' E 135°02'510.6
2018-Feb-22 01:30N 34°13' E 135°09'1 1.7
2018-Feb-22 01:00N 34°13' E 135°08'715.0
2018-Feb-22 00:31N 34°11' E 134°59'815.6
2018-Feb-22 00:00N 34°08' E 134°50'815.4
2018-Feb-21 23:30N 34°05' E 134°42'6 5.6
2018-Feb-21 22:31N 34°03' E 134°35'0 4.3
2018-Feb-21 22:30N 34°03' E 134°35'714.4
2018-Feb-21 22:00N 34°05' E 134°44'816.2
2018-Feb-21 21:30N 34°08' E 134°53'816.3
2018-Feb-21 21:00N 34°11' E 135°02'611.7
2018-Feb-21 20:30N 34°13' E 135°09'1 1.4
2018-Feb-21 20:01N 34°13' E 135°08'714.7
2018-Feb-21 19:31N 34°11' E 134°59'714.7
2018-Feb-21 19:00N 34°07' E 134°51'714.6
2018-Feb-21 18:30N 34°05' E 134°43'7 1.8
2018-Feb-21 14:52N 34°03' E 134°35'412.0
2018-Feb-21 14:30N 34°04' E 134°40'714.0
2018-Feb-21 14:00N 34°08' E 134°48'714.2
2018-Feb-21 13:31N 34°10' E 134°55'713.7
2018-Feb-21 13:00N 34°12' E 135°03'4 8.7
2018-Feb-21 12:30N 34°13' E 135°09'0 0.1
2018-Feb-21 12:00N 34°13' E 135°09'714.3
2018-Feb-21 11:31N 34°11' E 135°00'815.9
2018-Feb-21 11:01N 34°07' E 134°52'815.1
2018-Feb-21 10:30N 34°05' E 134°43'7 6.1
2018-Feb-21 09:24N 34°03' E 134°35'513.8
2018-Feb-21 09:00N 34°05' E 134°41'815.8
2018-Feb-21 08:31N 34°08' E 134°50'816.0
2018-Feb-21 08:01N 34°10' E 134°59'815.4
2018-Feb-21 07:30N 34°13' E 135°08'0 0.9
2018-Feb-21 07:00N 34°13' E 135°09'1 1.1
2018-Feb-21 06:31N 34°13' E 135°08'714.6
2018-Feb-21 06:01N 34°11' E 134°60'714.8
2018-Feb-21 05:31N 34°07' E 134°52'814.7
2018-Feb-21 04:59N 34°05' E 134°43'6 4.3
2018-Feb-21 03:39N 34°03' E 134°36'213.0
2018-Feb-21 03:29N 34°04' E 134°39'714.2
2018-Feb-21 03:00N 34°07' E 134°46'815.1
2018-Feb-21 02:30N 34°09' E 134°55'714.8
2018-Feb-21 02:01N 34°13' E 135°02'510.6
2018-Feb-21 01:30N 34°13' E 135°09'1 1.0
2018-Feb-21 01:00N 34°13' E 135°08'714.4
2018-Feb-21 00:30N 34°11' E 134°60'815.7
2018-Feb-21 00:00N 34°08' E 134°51'815.7
2018-Feb-20 23:30N 34°05' E 134°42'5 5.0
2018-Feb-20 22:26N 34°03' E 134°36'715.5
2018-Feb-20 22:00N 34°06' E 134°43'816.8
2018-Feb-20 21:30N 34°09' E 134°53'816.7
2018-Feb-20 21:00N 34°12' E 135°02'510.9
2018-Feb-20 20:30N 34°13' E 135°09'1 1.1
2018-Feb-20 20:01N 34°13' E 135°08'714.9
2018-Feb-20 19:30N 34°10' E 134°59'815.3
2018-Feb-20 19:00N 34°07' E 134°51'714.9
2018-Feb-20 18:30N 34°05' E 134°42'6 1.9
2018-Feb-20 15:08N 34°03' E 134°35'0 0.0
2018-Feb-20 14:58N 34°03' E 134°35'4 8.3
2018-Feb-20 14:30N 34°04' E 134°40'714.4
2018-Feb-20 14:00N 34°07' E 134°47'714.2
2018-Feb-20 13:30N 34°10' E 134°55'714.1
2018-Feb-20 13:00N 34°12' E 135°03'4 9.0
2018-Feb-20 12:31N 34°13' E 135°09'0 0.1
2018-Feb-20 12:01N 34°13' E 135°09'714.2
2018-Feb-20 11:30N 34°11' E 135°00'815.6
2018-Feb-20 11:00N 34°08' E 134°52'815.1
2018-Feb-20 10:30N 34°05' E 134°43'713.5
2018-Feb-20 10:00N 34°03' E 134°35'0 0.5
2018-Feb-20 09:26N 34°03' E 134°35'512.7
2018-Feb-20 09:01N 34°04' E 134°42'815.8
2018-Feb-20 08:31N 34°07' E 134°51'816.1
2018-Feb-20 08:00N 34°10' E 134°60'815.0
2018-Feb-20 07:30N 34°13' E 135°08'1 1.0
2018-Feb-20 07:00N 34°13' E 135°09'1 1.5
2018-Feb-20 06:31N 34°13' E 135°08'714.9
2018-Feb-20 06:00N 34°09' E 135°00'814.8
2018-Feb-20 05:30N 34°07' E 134°51'814.7
2018-Feb-20 04:58N 34°05' E 134°42'612.9
2018-Feb-20 04:30N 34°03' E 134°35'0 0.1
2018-Feb-20 03:45N 34°03' E 134°35'310.5
2018-Feb-20 03:29N 34°04' E 134°39'714.1
2018-Feb-20 03:00N 34°06' E 134°46'714.1
2018-Feb-20 02:30N 34°09' E 134°54'714.3
2018-Feb-20 02:00N 34°11' E 135°02'611.2
2018-Feb-20 01:31N 34°13' E 135°09'1 1.2
2018-Feb-20 01:01N 34°13' E 135°08'815.3
2018-Feb-20 00:31N 34°10' E 134°59'816.3
2018-Feb-20 00:01N 34°06' E 134°51'815.9
2018-Feb-19 23:30N 34°03' E 134°42'6 7.4
2018-Feb-19 22:42N 34°03' E 134°35'1 2.6
2018-Feb-19 22:27N 34°03' E 134°36'715.4
2018-Feb-19 22:00N 34°05' E 134°44'816.1
2018-Feb-19 21:30N 34°08' E 134°53'816.1
2018-Feb-19 21:01N 34°11' E 135°02'612.1
2018-Feb-19 20:31N 34°13' E 135°09'1 1.9
2018-Feb-19 20:00N 34°13' E 135°07'714.8
2018-Feb-19 19:30N 34°10' E 134°59'714.6
2018-Feb-19 19:00N 34°07' E 134°51'714.3
2018-Feb-19 18:29N 34°05' E 134°43'612.2
2018-Feb-19 17:58N 34°03' E 134°35'0 0.0
2018-Feb-19 15:01N 34°03' E 134°35'0 0.0
2018-Feb-19 14:55N 34°03' E 134°35'510.8
2018-Feb-19 14:27N 34°05' E 134°41'614.3
2018-Feb-19 14:00N 34°07' E 134°48'713.9
2018-Feb-19 13:30N 34°10' E 134°56'713.7
2018-Feb-19 13:00N 34°12' E 135°04'4 8.5
2018-Feb-19 12:30N 34°13' E 135°09'0 0.0
2018-Feb-19 12:00N 34°13' E 135°09'713.9
2018-Feb-19 11:30N 34°11' E 135°01'815.4
2018-Feb-19 11:01N 34°08' E 134°52'815.4
2018-Feb-19 10:31N 34°05' E 134°43'7 6.7
2018-Feb-19 09:26N 34°03' E 134°35'613.8
2018-Feb-19 09:01N 34°04' E 134°42'815.7
2018-Feb-19 08:30N 34°08' E 134°51'815.5
2018-Feb-19 08:00N 34°10' E 134°60'815.1
2018-Feb-19 07:30N 34°13' E 135°08'0 0.7
2018-Feb-19 06:59N 34°13' E 135°09'1 1.5
2018-Feb-19 06:31N 34°13' E 135°08'714.3
2018-Feb-19 06:01N 34°10' E 135°00'714.8
2018-Feb-19 05:30N 34°07' E 134°52'814.8
2018-Feb-19 05:00N 34°05' E 134°43'7 5.4
2018-Feb-19 03:46N 34°03' E 134°35'311.1
2018-Feb-19 03:29N 34°04' E 134°39'714.4
2018-Feb-19 03:00N 34°06' E 134°47'714.1
2018-Feb-19 02:30N 34°09' E 134°55'714.0
2018-Feb-19 02:00N 34°11' E 135°03'510.5
2018-Feb-19 01:30N 34°13' E 135°09'1 1.0
2018-Feb-19 01:00N 34°13' E 135°08'714.7
2018-Feb-19 00:30N 34°11' E 134°59'815.7
2018-Feb-19 00:00N 34°08' E 134°51'815.6
2018-Feb-18 23:30N 34°05' E 134°42'6 7.1
2018-Feb-18 22:41N 34°03' E 134°35'1 4.7
2018-Feb-18 22:31N 34°03' E 134°36'714.7
2018-Feb-18 22:00N 34°06' E 134°44'815.6
2018-Feb-18 21:31N 34°08' E 134°53'815.7
2018-Feb-18 21:01N 34°12' E 135°02'611.8
2018-Feb-18 20:30N 34°13' E 135°09'1 1.1
2018-Feb-18 20:01N 34°13' E 135°08'714.8
2018-Feb-18 19:31N 34°10' E 134°60'714.6
2018-Feb-18 19:00N 34°08' E 134°51'814.8
2018-Feb-18 18:28N 34°05' E 134°42'612.3
2018-Feb-18 17:58N 34°03' E 134°35'0 0.3
2018-Feb-18 17:23N 34°03' E 134°35'0 0.0
2018-Feb-18 15:13N 34°03' E 134°35'0 0.0
2018-Feb-18 14:58N 34°03' E 134°35'5 9.2
2018-Feb-18 14:28N 34°04' E 134°41'714.0
2018-Feb-18 14:01N 34°07' E 134°48'714.0
2018-Feb-18 13:31N 34°09' E 134°56'714.0
2018-Feb-18 13:00N 34°12' E 135°04'4 8.7
2018-Feb-18 12:30N 34°13' E 135°09'0 0.1
2018-Feb-18 12:00N 34°13' E 135°09'714.0
2018-Feb-18 11:31N 34°11' E 135°00'815.5
2018-Feb-18 11:00N 34°08' E 134°51'815.2
2018-Feb-18 10:30N 34°05' E 134°43'713.8
2018-Feb-18 10:00N 34°03' E 134°35'0 0.2
2018-Feb-18 09:26N 34°03' E 134°35'613.2
2018-Feb-18 09:00N 34°04' E 134°42'815.4
2018-Feb-18 08:30N 34°07' E 134°50'815.8
2018-Feb-18 08:00N 34°10' E 134°59'815.1
2018-Feb-18 07:30N 34°13' E 135°08'1 1.8
2018-Feb-18 07:00N 34°13' E 135°09'0 0.7
2018-Feb-18 06:31N 34°13' E 135°08'714.3
2018-Feb-18 06:00N 34°10' E 135°00'714.7
2018-Feb-18 05:30N 34°07' E 134°52'815.0
2018-Feb-18 05:00N 34°05' E 134°43'713.1
2018-Feb-18 04:28N 34°03' E 134°35'0 0.3
2018-Feb-18 03:56N 34°03' E 134°35'3 7.1
2018-Feb-18 03:30N 34°03' E 134°39'714.1
2018-Feb-18 03:00N 34°06' E 134°47'714.0
2018-Feb-18 02:30N 34°08' E 134°54'714.1
2018-Feb-18 02:01N 34°11' E 135°02'610.9
2018-Feb-18 01:30N 34°13' E 135°09'1 1.3
2018-Feb-18 01:00N 34°13' E 135°08'714.6
2018-Feb-18 00:30N 34°11' E 134°59'815.6
2018-Feb-18 00:00N 34°07' E 134°51'815.5
2018-Feb-17 23:30N 34°05' E 134°42'6 8.7
2018-Feb-17 22:50N 34°03' E 134°35'0 1.3
2018-Feb-17 22:30N 34°03' E 134°35'714.6
2018-Feb-17 22:00N 34°05' E 134°44'816.1
2018-Feb-17 21:31N 34°08' E 134°53'815.8
2018-Feb-17 21:01N 34°11' E 135°02'612.0
2018-Feb-17 20:30N 34°13' E 135°09'1 1.5
2018-Feb-17 20:01N 34°13' E 135°08'714.3
2018-Feb-17 19:31N 34°10' E 134°60'814.8
2018-Feb-17 19:00N 34°07' E 134°51'814.9
2018-Feb-17 18:29N 34°05' E 134°43'6 1.7
2018-Feb-17 14:51N 34°03' E 134°35'410.7
2018-Feb-17 14:30N 34°04' E 134°40'713.9
2018-Feb-17 14:00N 34°06' E 134°47'714.5
2018-Feb-17 13:30N 34°09' E 134°56'714.5
2018-Feb-17 13:01N 34°12' E 135°03'4 8.9
2018-Feb-17 12:30N 34°13' E 135°09'0 0.1
2018-Feb-17 12:01N 34°13' E 135°09'714.2
2018-Feb-17 11:30N 34°10' E 135°00'815.6
2018-Feb-17 11:00N 34°08' E 134°52'815.4
2018-Feb-17 10:30N 34°05' E 134°43'713.1
2018-Feb-17 10:00N 34°03' E 134°35'0 0.5
2018-Feb-17 09:22N 34°03' E 134°36'513.2
2018-Feb-17 09:00N 34°04' E 134°41'714.8
2018-Feb-17 08:30N 34°07' E 134°50'816.3
2018-Feb-17 08:00N 34°10' E 134°59'815.8
2018-Feb-17 07:30N 34°13' E 135°08'1 1.7
2018-Feb-17 07:00N 34°13' E 135°09'0 0.8
2018-Feb-17 06:30N 34°13' E 135°08'714.5
2018-Feb-17 06:00N 34°11' E 134°60'714.9
2018-Feb-17 05:31N 34°08' E 134°52'815.1
2018-Feb-17 05:00N 34°05' E 134°43'712.5
2018-Feb-17 04:28N 34°03' E 134°35'0 0.2
2018-Feb-17 03:54N 34°03' E 134°35'4 8.4
2018-Feb-17 03:27N 34°04' E 134°39'614.2
2018-Feb-17 03:00N 34°06' E 134°47'714.2
2018-Feb-17 02:30N 34°09' E 134°55'714.4
2018-Feb-17 02:00N 34°11' E 135°03'510.5
2018-Feb-17 01:30N 34°13' E 135°09'0 0.7
2018-Feb-17 01:00N 34°13' E 135°08'714.3
2018-Feb-17 00:30N 34°10' E 135°00'815.2
2018-Feb-17 00:00N 34°07' E 134°52'916.1
2018-Feb-16 23:29N 34°04' E 134°42'611.6
2018-Feb-16 22:59N 34°03' E 134°35'0 0.4
2018-Feb-16 22:30N 34°03' E 134°35'815.0
2018-Feb-16 21:59N 34°06' E 134°44'816.0
2018-Feb-16 21:30N 34°08' E 134°53'816.0
2018-Feb-16 21:01N 34°11' E 135°02'611.9
2018-Feb-16 20:30N 34°13' E 135°09'1 1.2
2018-Feb-16 20:01N 34°13' E 135°08'714.5
2018-Feb-16 19:30N 34°11' E 134°59'714.7
2018-Feb-16 19:01N 34°08' E 134°51'714.6
2018-Feb-16 18:30N 34°05' E 134°43'7 6.5
2018-Feb-16 17:27N 34°03' E 134°35'0 0.0
2018-Feb-16 16:53N 34°03' E 134°35'0 0.0
2018-Feb-16 16:25N 34°03' E 134°35'0 0.0
2018-Feb-16 14:58N 34°03' E 134°35'4 9.6
2018-Feb-16 14:30N 34°04' E 134°40'714.0
2018-Feb-16 14:00N 34°07' E 134°48'713.8
2018-Feb-16 13:31N 34°09' E 134°56'714.0
2018-Feb-16 13:00N 34°12' E 135°04'4 8.4
2018-Feb-16 12:30N 34°13' E 135°09'0 0.1
2018-Feb-16 12:00N 34°13' E 135°09'613.0
2018-Feb-16 11:30N 34°11' E 135°01'815.7
2018-Feb-16 11:01N 34°08' E 134°52'915.5
2018-Feb-16 10:26N 34°05' E 134°42'6 6.0
2018-Feb-16 09:25N 34°03' E 134°35'613.8
2018-Feb-16 09:00N 34°04' E 134°42'815.5
2018-Feb-16 08:31N 34°07' E 134°51'815.7
2018-Feb-16 08:00N 34°10' E 134°59'815.1
2018-Feb-16 07:31N 34°13' E 135°08'1 1.6
2018-Feb-16 07:01N 34°13' E 135°09'1 1.3
2018-Feb-16 06:31N 34°13' E 135°08'714.6
2018-Feb-16 06:01N 34°10' E 134°60'714.7
2018-Feb-16 05:30N 34°07' E 134°52'814.6
2018-Feb-16 04:59N 34°05' E 134°43'7 5.4
2018-Feb-16 03:46N 34°03' E 134°35'311.8
2018-Feb-16 03:29N 34°04' E 134°39'714.2
2018-Feb-16 03:00N 34°06' E 134°47'714.1
2018-Feb-16 02:30N 34°09' E 134°55'713.7
2018-Feb-16 02:00N 34°12' E 135°02'510.9
2018-Feb-16 01:30N 34°13' E 135°09'1 1.2
2018-Feb-16 01:01N 34°13' E 135°08'815.1
2018-Feb-16 00:30N 34°09' E 134°60'815.2
2018-Feb-16 00:00N 34°07' E 134°51'815.5
2018-Feb-15 23:29N 34°05' E 134°42'6 5.8
2018-Feb-15 22:31N 34°03' E 134°35'0 9.6
2018-Feb-15 22:29N 34°03' E 134°35'814.8
2018-Feb-15 21:59N 34°06' E 134°44'816.0
2018-Feb-15 21:30N 34°09' E 134°52'816.0
2018-Feb-15 21:00N 34°12' E 135°02'612.1
2018-Feb-15 20:30N 34°13' E 135°09'1 1.1
2018-Feb-15 20:01N 34°13' E 135°08'714.8
2018-Feb-15 19:31N 34°10' E 134°60'815.3
2018-Feb-15 19:01N 34°07' E 134°51'814.4
2018-Feb-15 18:28N 34°04' E 134°42'6 1.6
2018-Feb-15 14:51N 34°03' E 134°35'412.0
2018-Feb-15 14:30N 34°04' E 134°40'713.8
2018-Feb-15 14:00N 34°07' E 134°48'714.0
2018-Feb-15 13:30N 34°09' E 134°56'714.4
2018-Feb-15 13:01N 34°12' E 135°04'4 8.5
2018-Feb-15 12:30N 34°13' E 135°09'0 0.0
2018-Feb-15 12:00N 34°13' E 135°09'714.0
2018-Feb-15 11:31N 34°11' E 135°01'815.6
2018-Feb-15 11:00N 34°08' E 134°52'815.7
2018-Feb-15 10:29N 34°05' E 134°43'6 5.3
2018-Feb-15 09:22N 34°03' E 134°36'514.8
2018-Feb-15 09:01N 34°05' E 134°42'815.8
2018-Feb-15 08:30N 34°08' E 134°51'815.6
2018-Feb-15 08:01N 34°11' E 134°59'815.1
2018-Feb-15 07:31N 34°13' E 135°08'1 1.1
2018-Feb-15 07:00N 34°13' E 135°09'0 0.9
2018-Feb-15 06:31N 34°13' E 135°08'714.9
2018-Feb-15 06:00N 34°10' E 134°60'815.2
2018-Feb-15 05:30N 34°07' E 134°51'814.3
2018-Feb-15 04:58N 34°05' E 134°42'6 5.2
2018-Feb-15 03:47N 34°03' E 134°35'412.4
2018-Feb-15 03:26N 34°05' E 134°40'613.9
2018-Feb-15 03:00N 34°08' E 134°46'713.8
2018-Feb-15 02:30N 34°10' E 134°54'714.1
2018-Feb-15 02:00N 34°12' E 135°02'510.6
2018-Feb-15 01:30N 34°13' E 135°09'0 0.8
2018-Feb-15 01:00N 34°13' E 135°08'714.8
2018-Feb-15 00:31N 34°11' E 134°59'815.8
2018-Feb-15 00:01N 34°08' E 134°51'815.7
2018-Feb-14 23:30N 34°05' E 134°42'6 6.3
2018-Feb-14 22:35N 34°03' E 134°35'111.0
2018-Feb-14 22:30N 34°03' E 134°36'815.1
2018-Feb-14 22:00N 34°06' E 134°44'815.3
2018-Feb-14 21:30N 34°09' E 134°53'815.3
2018-Feb-14 21:00N 34°11' E 135°02'612.1
2018-Feb-14 20:30N 34°13' E 135°09'1 1.5
2018-Feb-14 20:00N 34°13' E 135°08'714.6
2018-Feb-14 19:30N 34°10' E 134°60'714.8
2018-Feb-14 19:00N 34°08' E 134°51'814.9
2018-Feb-14 18:30N 34°05' E 134°43'6 1.8
2018-Feb-14 14:53N 34°03' E 134°35'512.5
2018-Feb-14 14:31N 34°04' E 134°41'713.7
2018-Feb-14 14:00N 34°07' E 134°49'713.8
2018-Feb-14 13:30N 34°10' E 134°56'713.4
2018-Feb-14 13:00N 34°12' E 135°04'4 8.4
2018-Feb-14 12:30N 34°13' E 135°09'0 0.0
2018-Feb-14 12:00N 34°13' E 135°09'713.7
2018-Feb-14 11:31N 34°11' E 135°01'815.3
2018-Feb-14 11:01N 34°08' E 134°52'815.2
2018-Feb-14 10:31N 34°05' E 134°44'714.3
2018-Feb-14 10:00N 34°03' E 134°35'0 0.4
2018-Feb-14 09:28N 34°03' E 134°35'613.3
2018-Feb-14 09:00N 34°05' E 134°42'815.2
2018-Feb-14 08:31N 34°08' E 134°50'815.3
2018-Feb-14 08:00N 34°10' E 134°59'714.7
2018-Feb-14 07:31N 34°13' E 135°08'1 1.6
2018-Feb-14 07:00N 34°13' E 135°09'1 1.8
2018-Feb-14 06:31N 34°13' E 135°08'714.7
2018-Feb-14 06:00N 34°09' E 134°60'714.4
2018-Feb-14 05:30N 34°08' E 134°51'814.8
2018-Feb-14 04:59N 34°05' E 134°42'6 5.2
2018-Feb-14 03:45N 34°03' E 134°35'312.5
2018-Feb-14 03:30N 34°03' E 134°39'714.0
2018-Feb-14 03:00N 34°06' E 134°47'714.0
2018-Feb-14 02:31N 34°09' E 134°54'714.0
2018-Feb-14 02:00N 34°12' E 135°02'511.0
2018-Feb-14 01:30N 34°13' E 135°09'1 1.8
2018-Feb-14 01:00N 34°13' E 135°08'815.1
2018-Feb-14 00:30N 34°11' E 134°59'815.4
2018-Feb-14 00:00N 34°07' E 134°51'815.7
2018-Feb-13 23:29N 34°05' E 134°42'610.8
2018-Feb-13 22:58N 34°03' E 134°35'1 1.7
2018-Feb-13 22:29N 34°03' E 134°36'715.0
2018-Feb-13 22:00N 34°06' E 134°44'815.7
2018-Feb-13 21:31N 34°09' E 134°53'815.6
2018-Feb-13 21:01N 34°11' E 135°02'612.2
2018-Feb-13 20:31N 34°13' E 135°09'1 1.6
2018-Feb-13 20:00N 34°13' E 135°08'815.1
2018-Feb-13 19:30N 34°10' E 134°59'714.9
2018-Feb-13 19:01N 34°07' E 134°51'714.7
2018-Feb-13 18:30N 34°05' E 134°42'611.5
2018-Feb-13 17:58N 34°03' E 134°35'0 0.3
2018-Feb-13 17:12N 34°03' E 134°35'0 0.0
2018-Feb-13 15:09N 34°03' E 134°35'0 0.0
2018-Feb-13 14:56N 34°03' E 134°35'4 9.3
2018-Feb-13 14:30N 34°04' E 134°40'713.8
2018-Feb-13 14:00N 34°07' E 134°47'714.2
2018-Feb-13 13:30N 34°09' E 134°55'714.7
2018-Feb-13 13:00N 34°12' E 135°04'4 8.6
2018-Feb-13 12:30N 34°13' E 135°09'0 0.0
2018-Feb-13 12:00N 34°13' E 135°09'713.3
2018-Feb-13 11:30N 34°11' E 135°01'815.4
2018-Feb-13 11:01N 34°08' E 134°53'815.5
2018-Feb-13 10:30N 34°05' E 134°44'713.4
2018-Feb-13 09:58N 34°03' E 134°35'0 0.2
2018-Feb-13 09:25N 34°03' E 134°35'613.5
2018-Feb-13 08:59N 34°04' E 134°42'815.9
2018-Feb-13 08:31N 34°08' E 134°50'815.7
2018-Feb-13 08:01N 34°10' E 134°59'815.2
2018-Feb-13 07:31N 34°13' E 135°08'1 1.5
2018-Feb-13 07:01N 34°13' E 135°09'1 1.1
2018-Feb-13 06:31N 34°13' E 135°08'714.5
2018-Feb-13 06:01N 34°10' E 134°60'814.7
2018-Feb-13 05:30N 34°07' E 134°51'814.8
2018-Feb-13 04:59N 34°05' E 134°43'612.5
2018-Feb-13 04:28N 34°03' E 134°35'0 0.3
2018-Feb-13 03:59N 34°03' E 134°35'3 6.6
2018-Feb-13 03:30N 34°03' E 134°39'714.0
2018-Feb-13 03:00N 34°07' E 134°46'714.1
2018-Feb-13 02:30N 34°09' E 134°54'714.5
2018-Feb-13 02:00N 34°11' E 135°03'510.4
2018-Feb-13 01:30N 34°13' E 135°09'0 0.7
2018-Feb-13 01:01N 34°13' E 135°08'714.4
2018-Feb-13 00:31N 34°10' E 135°00'  

Dump ship's entire track history